sensor_id;sensor_type;location;lat;lon;timestamp;pressure;altitude;pressure_sealevel;temperature;humidity
64886;BME280;51514;52.206;5.114;2022-11-20T00:01:44;101468.31;;;0.68;71.37
64886;BME280;51514;52.206;5.114;2022-11-20T00:04:10;101470.97;;;0.68;71.22
64886;BME280;51514;52.206;5.114;2022-11-20T00:06:36;101479.72;;;0.70;71.58
64886;BME280;51514;52.206;5.114;2022-11-20T00:09:01;101479.72;;;0.70;71.72
64886;BME280;51514;52.206;5.114;2022-11-20T00:11:29;101483.22;;;0.70;71.39
64886;BME280;51514;52.206;5.114;2022-11-20T00:13:56;101470.97;;;0.68;71.54
64886;BME280;51514;52.206;5.114;2022-11-20T00:16:23;101458.81;;;0.64;71.40
64886;BME280;51514;52.206;5.114;2022-11-20T00:18:50;101461.63;;;0.61;71.40
64886;BME280;51514;52.206;5.114;2022-11-20T00:21:18;101467.00;;;0.59;71.14
64886;BME280;51514;52.206;5.114;2022-11-20T00:23:45;101462.19;;;0.50;70.89
64886;BME280;51514;52.206;5.114;2022-11-20T00:26:12;101465.13;;;0.44;71.39
64886;BME280;51514;52.206;5.114;2022-11-20T00:28:38;101453.75;;;0.42;71.45
64886;BME280;51514;52.206;5.114;2022-11-20T00:31:06;101448.69;;;0.38;71.31
64886;BME280;51514;52.206;5.114;2022-11-20T00:33:32;101456.78;;;0.34;71.31
64886;BME280;51514;52.206;5.114;2022-11-20T00:36:05;101451.81;;;0.28;71.58
64886;BME280;51514;52.206;5.114;2022-11-20T00:38:31;101449.38;;;0.07;71.83
64886;BME280;51514;52.206;5.114;2022-11-20T00:40:58;101449.47;;;-0.12;72.33
64886;BME280;51514;52.206;5.114;2022-11-20T00:43:25;101442.72;;;-0.37;71.01
64886;BME280;51514;52.206;5.114;2022-11-20T00:45:51;101436.94;;;-0.63;70.79
64886;BME280;51514;52.206;5.114;2022-11-20T00:48:20;101449.47;;;-0.86;70.87
64886;BME280;51514;52.206;5.114;2022-11-20T00:50:45;101446.31;;;-0.94;71.60
64886;BME280;51514;52.206;5.114;2022-11-20T00:53:11;101454.06;;;-0.89;72.16
64886;BME280;51514;52.206;5.114;2022-11-20T00:55:36;101450.19;;;-0.82;72.42
64886;BME280;51514;52.206;5.114;2022-11-20T00:58:01;101452.91;;;-0.84;72.94
64886;BME280;51514;52.206;5.114;2022-11-20T01:00:27;101449.56;;;-0.87;73.83
64886;BME280;51514;52.206;5.114;2022-11-20T01:02:52;101445.69;;;-0.80;73.81
64886;BME280;51514;52.206;5.114;2022-11-20T01:05:17;101442.59;;;-0.71;73.25
64886;BME280;51514;52.206;5.114;2022-11-20T01:07:42;101451.03;;;-0.63;73.55
64886;BME280;51514;52.206;5.114;2022-11-20T01:10:08;101450.91;;;-0.60;73.45
64886;BME280;51514;52.206;5.114;2022-11-20T01:12:33;101452.31;;;-0.53;73.58
64886;BME280;51514;52.206;5.114;2022-11-20T01:14:59;101462.50;;;-0.44;73.04
64886;BME280;51514;52.206;5.114;2022-11-20T01:17:24;101456.03;;;-0.38;73.41
64886;BME280;51514;52.206;5.114;2022-11-20T01:19:49;101450.59;;;-0.35;73.41
64886;BME280;51514;52.206;5.114;2022-11-20T01:22:15;101449.59;;;-0.32;73.38
64886;BME280;51514;52.206;5.114;2022-11-20T01:24:41;101443.25;;;-0.30;73.23
64886;BME280;51514;52.206;5.114;2022-11-20T01:27:06;101438.97;;;-0.32;73.14
64886;BME280;51514;52.206;5.114;2022-11-20T01:29:31;101436.81;;;-0.43;73.29
64886;BME280;51514;52.206;5.114;2022-11-20T01:31:57;101432.03;;;-0.54;73.66
64886;BME280;51514;52.206;5.114;2022-11-20T01:34:22;101430.63;;;-0.61;73.86
64886;BME280;51514;52.206;5.114;2022-11-20T01:36:48;101424.84;;;-0.69;74.07
64886;BME280;51514;52.206;5.114;2022-11-20T01:39:19;101419.84;;;-0.75;74.21
64886;BME280;51514;52.206;5.114;2022-11-20T01:41:46;101430.06;;;-0.86;74.61
64886;BME280;51514;52.206;5.114;2022-11-20T01:44:54;101425.88;;;-0.90;74.37
64886;BME280;51514;52.206;5.114;2022-11-20T01:47:30;101433.16;;;-0.77;74.97
64886;BME280;51514;52.206;5.114;2022-11-20T01:50:06;101437.16;;;-0.68;74.71
64886;BME280;51514;52.206;5.114;2022-11-20T01:52:41;101433.59;;;-0.67;74.24
64886;BME280;51514;52.206;5.114;2022-11-20T01:55:11;101438.03;;;-0.67;74.28
64886;BME280;51514;52.206;5.114;2022-11-20T01:57:38;101431.75;;;-0.65;74.35
64886;BME280;51514;52.206;5.114;2022-11-20T02:00:11;101433.28;;;-0.61;74.23
64886;BME280;51514;52.206;5.114;2022-11-20T02:02:39;101430.25;;;-0.53;74.38
64886;BME280;51514;52.206;5.114;2022-11-20T02:05:31;101432.84;;;-0.52;73.70
64886;BME280;51514;52.206;5.114;2022-11-20T02:07:59;101431.84;;;-0.49;73.83
64886;BME280;51514;52.206;5.114;2022-11-20T02:10:26;101417.66;;;-0.48;73.55
64886;BME280;51514;52.206;5.114;2022-11-20T02:12:52;101411.38;;;-0.46;73.55
64886;BME280;51514;52.206;5.114;2022-11-20T02:15:36;101403.44;;;-0.46;73.85
64886;BME280;51514;52.206;5.114;2022-11-20T02:18:01;101404.03;;;-0.41;73.92
64886;BME280;51514;52.206;5.114;2022-11-20T02:20:27;101403.91;;;-0.38;73.80
64886;BME280;51514;52.206;5.114;2022-11-20T02:23:00;101408.25;;;-0.37;73.54
64886;BME280;51514;52.206;5.114;2022-11-20T02:25:29;101406.47;;;-0.36;73.82
64886;BME280;51514;52.206;5.114;2022-11-20T02:27:55;101405.47;;;-0.33;74.07
64886;BME280;51514;52.206;5.114;2022-11-20T02:30:21;101406.22;;;-0.31;73.94
64886;BME280;51514;52.206;5.114;2022-11-20T02:32:46;101401.78;;;-0.31;73.46
64886;BME280;51514;52.206;5.114;2022-11-20T02:37:43;101400.06;;;-0.32;73.74
64886;BME280;51514;52.206;5.114;2022-11-20T02:40:10;101399.31;;;-0.34;73.50
64886;BME280;51514;52.206;5.114;2022-11-20T02:42:36;101404.69;;;-0.35;73.45
64886;BME280;51514;52.206;5.114;2022-11-20T02:45:02;101404.03;;;-0.41;73.37
64886;BME280;51514;52.206;5.114;2022-11-20T02:47:27;101390.00;;;-0.43;73.39
64886;BME280;51514;52.206;5.114;2022-11-20T02:49:52;101394.44;;;-0.43;73.65
64886;BME280;51514;52.206;5.114;2022-11-20T02:52:18;101402.56;;;-0.46;73.45
64886;BME280;51514;52.206;5.114;2022-11-20T02:54:43;101400.06;;;-0.49;73.48
64886;BME280;51514;52.206;5.114;2022-11-20T02:57:08;101395.75;;;-0.52;73.54
64886;BME280;51514;52.206;5.114;2022-11-20T02:59:34;101399.44;;;-0.54;73.22
64886;BME280;51514;52.206;5.114;2022-11-20T03:02:00;101389.13;;;-0.60;73.47
64886;BME280;51514;52.206;5.114;2022-11-20T03:04:25;101390.66;;;-0.74;73.67
64886;BME280;51514;52.206;5.114;2022-11-20T03:06:50;101391.09;;;-0.83;73.86
64886;BME280;51514;52.206;5.114;2022-11-20T03:09:15;101391.94;;;-0.82;74.09
64886;BME280;51514;52.206;5.114;2022-11-20T03:11:41;101385.53;;;-0.77;74.63
64886;BME280;51514;52.206;5.114;2022-11-20T03:14:06;101386.22;;;-0.73;74.10
64886;BME280;51514;52.206;5.114;2022-11-20T03:16:32;101373.63;;;-0.68;73.70
64886;BME280;51514;52.206;5.114;2022-11-20T03:18:57;101378.91;;;-0.68;74.00
64886;BME280;51514;52.206;5.114;2022-11-20T03:21:23;101363.97;;;-0.69;73.65
64886;BME280;51514;52.206;5.114;2022-11-20T03:23:48;101373.56;;;-0.66;73.80
64886;BME280;51514;52.206;5.114;2022-11-20T03:26:23;101375.28;;;-0.65;73.43
64886;BME280;51514;52.206;5.114;2022-11-20T03:28:59;101375.34;;;-0.67;73.31
64886;BME280;51514;52.206;5.114;2022-11-20T03:31:30;101375.47;;;-0.70;73.16
64886;BME280;51514;52.206;5.114;2022-11-20T03:33:57;101384.41;;;-0.73;73.24
64886;BME280;51514;52.206;5.114;2022-11-20T03:36:23;101369.63;;;-0.77;73.60
64886;BME280;51514;52.206;5.114;2022-11-20T03:38:49;101367.06;;;-0.78;73.54
64886;BME280;51514;52.206;5.114;2022-11-20T03:41:21;101360.97;;;-0.80;73.48
64886;BME280;51514;52.206;5.114;2022-11-20T03:43:50;101354.09;;;-0.84;73.52
64886;BME280;51514;52.206;5.114;2022-11-20T03:46:16;101370.03;;;-0.86;73.03
64886;BME280;51514;52.206;5.114;2022-11-20T03:48:41;101365.78;;;-0.88;73.35
64886;BME280;51514;52.206;5.114;2022-11-20T03:51:21;101361.63;;;-0.94;72.36
64886;BME280;51514;52.206;5.114;2022-11-20T03:53:47;101359.22;;;-0.98;72.49
64886;BME280;51514;52.206;5.114;2022-11-20T03:56:15;101359.34;;;-1.01;72.98
64886;BME280;51514;52.206;5.114;2022-11-20T03:58:42;101354.06;;;-1.01;73.03
64886;BME280;51514;52.206;5.114;2022-11-20T04:01:09;101354.13;;;-1.03;73.07
64886;BME280;51514;52.206;5.114;2022-11-20T04:03:36;101352.47;;;-1.05;73.19
64886;BME280;51514;52.206;5.114;2022-11-20T04:06:07;101351.56;;;-1.04;73.48
64886;BME280;51514;52.206;5.114;2022-11-20T04:08:33;101338.31;;;-1.04;73.39
64886;BME280;51514;52.206;5.114;2022-11-20T04:11:31;101323.59;;;-1.10;73.23
64886;BME280;51514;52.206;5.114;2022-11-20T04:13:58;101314.72;;;-1.28;73.31
64886;BME280;51514;52.206;5.114;2022-11-20T04:16:25;101320.47;;;-1.37;73.86
64886;BME280;51514;52.206;5.114;2022-11-20T04:18:55;101317.19;;;-1.42;73.70
64886;BME280;51514;52.206;5.114;2022-11-20T04:21:22;101313.44;;;-1.38;74.25
64886;BME280;51514;52.206;5.114;2022-11-20T04:23:49;101329.19;;;-1.35;73.76
64886;BME280;51514;52.206;5.114;2022-11-20T04:26:14;101323.75;;;-1.32;73.50
64886;BME280;51514;52.206;5.114;2022-11-20T04:28:40;101317.44;;;-1.29;73.47
64886;BME280;51514;52.206;5.114;2022-11-20T04:33:32;101323.47;;;-1.26;73.79
64886;BME280;51514;52.206;5.114;2022-11-20T04:36:06;101325.03;;;-1.22;74.29
64886;BME280;51514;52.206;5.114;2022-11-20T04:38:32;101322.22;;;-1.19;73.68
64886;BME280;51514;52.206;5.114;2022-11-20T04:41:08;101343.31;;;-1.17;73.39
64886;BME280;51514;52.206;5.114;2022-11-20T04:43:36;101328.63;;;-1.23;73.28
64886;BME280;51514;52.206;5.114;2022-11-20T04:46:01;101328.53;;;-1.21;73.93
64886;BME280;51514;52.206;5.114;2022-11-20T04:48:28;101322.31;;;-1.20;73.77
64886;BME280;51514;52.206;5.114;2022-11-20T04:50:53;101321.47;;;-1.21;73.63
64886;BME280;51514;52.206;5.114;2022-11-20T04:53:19;101304.81;;;-1.23;73.38
64886;BME280;51514;52.206;5.114;2022-11-20T04:55:45;101311.59;;;-1.36;73.30
64886;BME280;51514;52.206;5.114;2022-11-20T04:58:11;101319.41;;;-1.33;74.32
64886;BME280;51514;52.206;5.114;2022-11-20T05:00:36;101307.22;;;-1.37;73.58
64886;BME280;51514;52.206;5.114;2022-11-20T05:03:02;101298.75;;;-1.62;72.41
64886;BME280;51514;52.206;5.114;2022-11-20T05:05:27;101297.84;;;-1.81;72.56
64886;BME280;51514;52.206;5.114;2022-11-20T05:07:53;101293.19;;;-1.95;72.98
64886;BME280;51514;52.206;5.114;2022-11-20T05:10:20;101286.50;;;-2.04;73.83
64886;BME280;51514;52.206;5.114;2022-11-20T05:12:45;101284.78;;;-2.05;73.33
64886;BME280;51514;52.206;5.114;2022-11-20T05:15:11;101288.03;;;-1.98;73.87
64886;BME280;51514;52.206;5.114;2022-11-20T05:17:36;101287.97;;;-1.97;73.58
64886;BME280;51514;52.206;5.114;2022-11-20T05:20:01;101275.75;;;-1.99;73.90
64886;BME280;51514;52.206;5.114;2022-11-20T05:22:27;101276.38;;;-1.94;73.89
64886;BME280;51514;52.206;5.114;2022-11-20T05:24:52;101279.75;;;-1.91;74.14
64886;BME280;51514;52.206;5.114;2022-11-20T05:27:18;101276.69;;;-1.81;73.91
64886;BME280;51514;52.206;5.114;2022-11-20T05:29:43;101280.13;;;-1.79;73.24
64886;BME280;51514;52.206;5.114;2022-11-20T05:32:08;101276.44;;;-1.75;73.34
64886;BME280;51514;52.206;5.114;2022-11-20T05:34:35;101277.22;;;-1.73;73.91
64886;BME280;51514;52.206;5.114;2022-11-20T05:37:01;101288.50;;;-1.70;74.11
64886;BME280;51514;52.206;5.114;2022-11-20T05:39:27;101290.94;;;-1.65;74.34
64886;BME280;51514;52.206;5.114;2022-11-20T05:41:52;101287.16;;;-1.60;74.10
64886;BME280;51514;52.206;5.114;2022-11-20T05:44:37;101289.59;;;-1.55;74.47
64886;BME280;51514;52.206;5.114;2022-11-20T05:47:02;101287.66;;;-1.52;74.40
64886;BME280;51514;52.206;5.114;2022-11-20T05:49:28;101286.56;;;-1.48;74.44
64886;BME280;51514;52.206;5.114;2022-11-20T05:51:53;101292.72;;;-1.47;74.10
64886;BME280;51514;52.206;5.114;2022-11-20T05:54:18;101290.88;;;-1.45;74.13
64886;BME280;51514;52.206;5.114;2022-11-20T05:56:44;101296.16;;;-1.45;74.02
64886;BME280;51514;52.206;5.114;2022-11-20T05:59:09;101301.31;;;-1.42;74.52
64886;BME280;51514;52.206;5.114;2022-11-20T06:01:34;101305.75;;;-1.42;74.10
64886;BME280;51514;52.206;5.114;2022-11-20T06:04:01;101310.00;;;-1.40;74.41
64886;BME280;51514;52.206;5.114;2022-11-20T06:06:26;101306.44;;;-1.39;74.29
64886;BME280;51514;52.206;5.114;2022-11-20T06:08:52;101305.44;;;-1.36;73.94
64886;BME280;51514;52.206;5.114;2022-11-20T06:11:18;101302.00;;;-1.38;74.41
64886;BME280;51514;52.206;5.114;2022-11-20T06:13:44;101299.28;;;-1.37;74.27
64886;BME280;51514;52.206;5.114;2022-11-20T06:16:11;101302.81;;;-1.36;74.39
64886;BME280;51514;52.206;5.114;2022-11-20T06:18:38;101308.88;;;-1.34;74.16
64886;BME280;51514;52.206;5.114;2022-11-20T06:21:09;101298.31;;;-1.34;74.10
64886;BME280;51514;52.206;5.114;2022-11-20T06:23:35;101300.88;;;-1.33;73.78
64886;BME280;51514;52.206;5.114;2022-11-20T06:26:06;101300.09;;;-1.35;74.15
64886;BME280;51514;52.206;5.114;2022-11-20T06:28:32;101296.66;;;-1.37;74.17
64886;BME280;51514;52.206;5.114;2022-11-20T06:30:57;101294.94;;;-1.38;74.10
64886;BME280;51514;52.206;5.114;2022-11-20T06:33:23;101299.38;;;-1.38;73.78
64886;BME280;51514;52.206;5.114;2022-11-20T06:35:49;101296.59;;;-1.35;74.16
64886;BME280;51514;52.206;5.114;2022-11-20T06:38:14;101294.78;;;-1.35;74.03
64886;BME280;51514;52.206;5.114;2022-11-20T06:40:40;101299.28;;;-1.37;73.59
64886;BME280;51514;52.206;5.114;2022-11-20T06:43:06;101297.59;;;-1.38;74.13
64886;BME280;51514;52.206;5.114;2022-11-20T06:45:31;101299.00;;;-1.50;74.03
64886;BME280;51514;52.206;5.114;2022-11-20T06:47:57;101299.72;;;-1.46;74.72
64886;BME280;51514;52.206;5.114;2022-11-20T06:50:22;101296.16;;;-1.45;74.86
64886;BME280;51514;52.206;5.114;2022-11-20T06:52:48;101284.16;;;-1.52;74.23
64886;BME280;51514;52.206;5.114;2022-11-20T06:55:13;101288.59;;;-1.53;74.48
64886;BME280;51514;52.206;5.114;2022-11-20T06:57:38;101284.16;;;-1.52;75.00
64886;BME280;51514;52.206;5.114;2022-11-20T07:00:04;101282.06;;;-1.45;75.08
64886;BME280;51514;52.206;5.114;2022-11-20T07:02:29;101282.63;;;-1.39;74.71
64886;BME280;51514;52.206;5.114;2022-11-20T07:04:55;101291.28;;;-1.35;73.95
64886;BME280;51514;52.206;5.114;2022-11-20T07:07:20;101283.28;;;-1.34;74.03
64886;BME280;51514;52.206;5.114;2022-11-20T07:09:45;101284.09;;;-1.32;74.02
64886;BME280;51514;52.206;5.114;2022-11-20T07:12:10;101269.13;;;-1.33;73.27
64886;BME280;51514;52.206;5.114;2022-11-20T07:14:36;101266.44;;;-1.31;73.83
64886;BME280;51514;52.206;5.114;2022-11-20T07:17:01;101273.56;;;-1.33;73.74
64886;BME280;51514;52.206;5.114;2022-11-20T07:19:27;101264.66;;;-1.31;73.85
64886;BME280;51514;52.206;5.114;2022-11-20T07:21:53;101262.00;;;-1.31;73.47
64886;BME280;51514;52.206;5.114;2022-11-20T07:24:18;101263.72;;;-1.30;74.09
64886;BME280;51514;52.206;5.114;2022-11-20T07:26:46;101259.13;;;-1.26;74.29
64886;BME280;51514;52.206;5.114;2022-11-20T07:29:14;101259.97;;;-1.26;74.06
64886;BME280;51514;52.206;5.114;2022-11-20T07:31:39;101255.47;;;-1.24;74.70
64886;BME280;51514;52.206;5.114;2022-11-20T07:34:04;101260.44;;;-1.18;74.59
64886;BME280;51514;52.206;5.114;2022-11-20T07:36:30;101264.81;;;-1.17;75.32
64886;BME280;51514;52.206;5.114;2022-11-20T07:38:55;101269.66;;;-1.07;75.46
64886;BME280;51514;52.206;5.114;2022-11-20T07:41:20;101269.38;;;-1.01;75.09
64886;BME280;51514;52.206;5.114;2022-11-20T07:43:46;101275.28;;;-0.96;74.73
64886;BME280;51514;52.206;5.114;2022-11-20T07:46:11;101278.50;;;-0.90;74.74
64886;BME280;51514;52.206;5.114;2022-11-20T07:48:36;101275.47;;;-0.82;74.72
64886;BME280;51514;52.206;5.114;2022-11-20T07:51:02;101264.75;;;-0.79;75.24
64886;BME280;51514;52.206;5.114;2022-11-20T07:53:27;101264.28;;;-0.70;75.51
64886;BME280;51514;52.206;5.114;2022-11-20T07:55:52;101267.25;;;-0.59;75.22
64886;BME280;51514;52.206;5.114;2022-11-20T07:58:19;101270.69;;;-0.57;75.68
64886;BME280;51514;52.206;5.114;2022-11-20T08:00:45;101265.19;;;-0.54;75.20
64886;BME280;51514;52.206;5.114;2022-11-20T08:03:10;101256.25;;;-0.51;76.13
64886;BME280;51514;52.206;5.114;2022-11-20T08:05:36;101251.59;;;-0.46;76.11
64886;BME280;51514;52.206;5.114;2022-11-20T08:08:02;101245.97;;;-0.40;75.69
64886;BME280;51514;52.206;5.114;2022-11-20T08:10:28;101248.75;;;-0.26;76.19
64886;BME280;51514;52.206;5.114;2022-11-20T08:12:53;101247.84;;;-0.25;75.29
64886;BME280;51514;52.206;5.114;2022-11-20T08:15:39;101239.97;;;-0.26;75.75
64886;BME280;51514;52.206;5.114;2022-11-20T08:18:11;101242.59;;;-0.26;75.79
64886;BME280;51514;52.206;5.114;2022-11-20T08:20:37;101242.59;;;-0.26;76.28
64886;BME280;51514;52.206;5.114;2022-11-20T08:23:06;101245.41;;;-0.29;76.16
64886;BME280;51514;52.206;5.114;2022-11-20T08:25:34;101248.31;;;-0.34;76.13
64886;BME280;51514;52.206;5.114;2022-11-20T08:28:03;101248.38;;;-0.35;76.75
64886;BME280;51514;52.206;5.114;2022-11-20T08:30:29;101237.88;;;-0.37;76.77
64886;BME280;51514;52.206;5.114;2022-11-20T08:33:03;101239.72;;;-0.39;77.36
64886;BME280;51514;52.206;5.114;2022-11-20T08:35:32;101246.03;;;-0.42;77.22
64886;BME280;51514;52.206;5.114;2022-11-20T08:37:58;101238.34;;;-0.46;77.16
64886;BME280;51514;52.206;5.114;2022-11-20T08:40:23;101239.44;;;-0.50;77.20
64886;BME280;51514;52.206;5.114;2022-11-20T08:42:50;101245.59;;;-0.50;77.89
64886;BME280;51514;52.206;5.114;2022-11-20T08:45:16;101241.28;;;-0.52;78.10
64886;BME280;51514;52.206;5.114;2022-11-20T08:47:44;101239.56;;;-0.53;78.37
64886;BME280;51514;52.206;5.114;2022-11-20T08:50:11;101249.31;;;-0.54;78.30
64886;BME280;51514;52.206;5.114;2022-11-20T08:52:37;101249.50;;;-0.57;78.50
64886;BME280;51514;52.206;5.114;2022-11-20T08:55:04;101265.19;;;-0.54;79.49
64886;BME280;51514;52.206;5.114;2022-11-20T08:57:36;101264.97;;;-0.49;79.72
64886;BME280;51514;52.206;5.114;2022-11-20T09:00:04;101264.75;;;-0.45;79.56
64886;BME280;51514;52.206;5.114;2022-11-20T09:02:30;101252.13;;;-0.40;79.64
64886;BME280;51514;52.206;5.114;2022-11-20T09:04:55;101251.03;;;-0.35;79.93
64886;BME280;51514;52.206;5.114;2022-11-20T09:07:21;101231.38;;;-0.31;79.87
64886;BME280;51514;52.206;5.114;2022-11-20T09:09:46;101232.00;;;-0.26;79.71
64886;BME280;51514;52.206;5.114;2022-11-20T09:12:11;101227.41;;;-0.23;79.90
64886;BME280;51514;52.206;5.114;2022-11-20T09:14:37;101226.31;;;-0.19;79.64
64886;BME280;51514;52.206;5.114;2022-11-20T09:17:04;101223.34;;;-0.13;79.26
64886;BME280;51514;52.206;5.114;2022-11-20T09:19:29;101226.50;;;-0.06;79.84
64886;BME280;51514;52.206;5.114;2022-11-20T09:21:54;101218.25;;;0.00;79.65
64886;BME280;51514;52.206;5.114;2022-11-20T09:24:20;101212.69;;;0.05;79.72
64886;BME280;51514;52.206;5.114;2022-11-20T09:26:48;101210.38;;;0.14;79.50
64886;BME280;51514;52.206;5.114;2022-11-20T09:29:13;101199.53;;;0.19;79.34
64886;BME280;51514;52.206;5.114;2022-11-20T09:31:38;101206.38;;;0.23;79.41
64886;BME280;51514;52.206;5.114;2022-11-20T09:34:04;101191.84;;;0.30;79.30
64886;BME280;51514;52.206;5.114;2022-11-20T09:36:29;101191.50;;;0.36;79.75
64886;BME280;51514;52.206;5.114;2022-11-20T09:38:54;101191.25;;;0.41;79.53
64886;BME280;51514;52.206;5.114;2022-11-20T09:47:17;101182.41;;;0.56;79.85
64886;BME280;51514;52.206;5.114;2022-11-20T09:50:04;101185.69;;;0.61;79.12
64886;BME280;51514;52.206;5.114;2022-11-20T09:53:35;101179.94;;;0.68;79.69
64886;BME280;51514;52.206;5.114;2022-11-20T09:55:40;101170.94;;;0.71;79.33
64886;BME280;51514;52.206;5.114;2022-11-20T09:58:06;101166.41;;;0.73;79.44
64886;BME280;51514;52.206;5.114;2022-11-20T10:00:35;101169.63;;;0.78;79.38
64886;BME280;51514;52.206;5.114;2022-11-20T10:03:30;101172.13;;;0.81;80.04
64886;BME280;51514;52.206;5.114;2022-11-20T10:06:02;101172.53;;;0.89;80.19
64886;BME280;51514;52.206;5.114;2022-11-20T10:08:48;101171.50;;;0.92;79.91
64886;BME280;51514;52.206;5.114;2022-11-20T10:17:22;101147.34;;;0.96;79.43
64886;BME280;51514;52.206;5.114;2022-11-20T10:19:53;101139.88;;;1.03;80.37
64886;BME280;51514;52.206;5.114;2022-11-20T10:22:34;101139.50;;;1.09;79.90
64886;BME280;51514;52.206;5.114;2022-11-20T10:27:51;101127.28;;;1.21;80.18
64886;BME280;51514;52.206;5.114;2022-11-20T10:30:21;101114.59;;;1.26;80.16
64886;BME280;51514;52.206;5.114;2022-11-20T10:32:59;101104.66;;;1.29;79.74
64886;BME280;51514;52.206;5.114;2022-11-20T10:38:01;101102.63;;;1.33;80.06
64886;BME280;51514;52.206;5.114;2022-11-20T10:40:39;101101.44;;;1.38;80.08
64886;BME280;51514;52.206;5.114;2022-11-20T10:43:26;101092.50;;;1.39;80.28
64886;BME280;51514;52.206;5.114;2022-11-20T10:46:06;101092.97;;;1.46;80.47
64886;BME280;51514;52.206;5.114;2022-11-20T10:48:34;101087.09;;;1.55;80.45
64886;BME280;51514;52.206;5.114;2022-11-20T10:56:20;101073.97;;;1.52;80.59
64886;BME280;51514;52.206;5.114;2022-11-20T11:01:29;101049.88;;;1.55;80.00
64886;BME280;51514;52.206;5.114;2022-11-20T11:03:55;101049.38;;;1.63;80.38
64886;BME280;51514;52.206;5.114;2022-11-20T11:06:30;101041.31;;;1.64;80.29
64886;BME280;51514;52.206;5.114;2022-11-20T11:09:02;101036.59;;;1.69;80.42
64886;BME280;51514;52.206;5.114;2022-11-20T11:11:31;101041.50;;;1.75;80.20
64886;BME280;51514;52.206;5.114;2022-11-20T11:14:12;101030.69;;;1.78;80.25
64886;BME280;51514;52.206;5.114;2022-11-20T11:16:57;101030.28;;;1.84;80.13
64886;BME280;51514;52.206;5.114;2022-11-20T11:19:23;101014.53;;;1.81;79.87
64886;BME280;51514;52.206;5.114;2022-11-20T11:21:52;101012.66;;;1.83;80.41
64886;BME280;51514;52.206;5.114;2022-11-20T11:24:29;101006.25;;;1.86;80.13
64886;BME280;51514;52.206;5.114;2022-11-20T11:26:58;100997.22;;;1.89;80.48
64886;BME280;51514;52.206;5.114;2022-11-20T11:29:25;100999.69;;;1.92;80.52
64886;BME280;51514;52.206;5.114;2022-11-20T11:32:23;100995.25;;;1.92;80.35
64886;BME280;51514;52.206;5.114;2022-11-20T11:35:03;100983.44;;;1.96;80.47
64886;BME280;51514;52.206;5.114;2022-11-20T11:37:37;100983.13;;;2.01;81.02
64886;BME280;51514;52.206;5.114;2022-11-20T11:40:04;100984.34;;;2.09;80.71
64886;BME280;51514;52.206;5.114;2022-11-20T11:42:31;100971.59;;;2.14;80.79
64886;BME280;51514;52.206;5.114;2022-11-20T11:44:58;100963.53;;;2.16;80.65
64886;BME280;51514;52.206;5.114;2022-11-20T11:47:38;100971.09;;;2.22;81.19
64886;BME280;51514;52.206;5.114;2022-11-20T11:55:38;100954.28;;;2.22;82.93
64886;BME280;51514;52.206;5.114;2022-11-20T11:58:18;100954.94;;;2.25;82.54
64886;BME280;51514;52.206;5.114;2022-11-20T12:00:54;100950.56;;;2.24;83.24
64886;BME280;51514;52.206;5.114;2022-11-20T12:06:14;100941.94;;;2.33;83.73
64886;BME280;51514;52.206;5.114;2022-11-20T12:09:12;100938.53;;;2.31;84.13
64886;BME280;51514;52.206;5.114;2022-11-20T12:11:47;100930.66;;;2.30;84.50
64886;BME280;51514;52.206;5.114;2022-11-20T12:14:20;100935.88;;;2.31;84.23
64886;BME280;51514;52.206;5.114;2022-11-20T12:16:50;100936.44;;;2.36;85.02
64886;BME280;51514;52.206;5.114;2022-11-20T12:19:16;100925.69;;;2.38;85.40
64886;BME280;51514;52.206;5.114;2022-11-20T12:22:02;100913.75;;;2.31;85.32
64886;BME280;51514;52.206;5.114;2022-11-20T12:24:53;100904.91;;;2.30;85.61
64886;BME280;51514;52.206;5.114;2022-11-20T12:30:08;100898.75;;;2.42;86.14
64886;BME280;51514;52.206;5.114;2022-11-20T12:43:31;100874.91;;;2.41;87.35
64886;BME280;51514;52.206;5.114;2022-11-20T12:46:38;100863.75;;;2.48;88.90
64886;BME280;51514;52.206;5.114;2022-11-20T12:49:24;100858.44;;;2.48;88.92
64886;BME280;51514;52.206;5.114;2022-11-20T12:54:46;100837.25;;;2.60;88.66
64886;BME280;51514;52.206;5.114;2022-11-20T12:57:38;100828.41;;;2.59;88.77
64886;BME280;51514;52.206;5.114;2022-11-20T13:00:11;100827.41;;;2.60;88.70
64886;BME280;51514;52.206;5.114;2022-11-20T13:08:23;100837.00;;;2.63;89.76
64886;BME280;51514;52.206;5.114;2022-11-20T13:10:56;100829.00;;;2.63;90.19
64886;BME280;51514;52.206;5.114;2022-11-20T13:16:11;100807.72;;;2.63;90.40
64886;BME280;51514;52.206;5.114;2022-11-20T13:18:41;100811.88;;;2.67;90.50
64886;BME280;51514;52.206;5.114;2022-11-20T13:21:38;100821.78;;;2.65;90.82
64886;BME280;51514;52.206;5.114;2022-11-20T13:24:19;100815.50;;;2.66;90.00
64886;BME280;51514;52.206;5.114;2022-11-20T13:26:46;100811.66;;;2.70;90.91
64886;BME280;51514;52.206;5.114;2022-11-20T13:29:16;100816.84;;;2.71;91.00
64886;BME280;51514;52.206;5.114;2022-11-20T13:31:46;100812.16;;;2.75;90.83
64886;BME280;51514;52.206;5.114;2022-11-20T13:34:26;100814.84;;;2.75;90.65
64886;BME280;51514;52.206;5.114;2022-11-20T13:36:54;100799.81;;;2.74;91.33
64886;BME280;51514;52.206;5.114;2022-11-20T13:39:36;100790.88;;;2.75;91.47
64886;BME280;51514;52.206;5.114;2022-11-20T13:42:26;100784.81;;;2.73;91.23
64886;BME280;51514;52.206;5.114;2022-11-20T13:44:55;100772.25;;;2.75;91.00
64886;BME280;51514;52.206;5.114;2022-11-20T13:47:22;100772.88;;;2.78;91.76
64886;BME280;51514;52.206;5.114;2022-11-20T13:49:48;100769.47;;;2.76;90.84
64886;BME280;51514;52.206;5.114;2022-11-20T14:00:28;100759.09;;;2.84;91.03
64886;BME280;51514;52.206;5.114;2022-11-20T14:03:23;100740.38;;;2.86;91.63
64886;BME280;51514;52.206;5.114;2022-11-20T14:05:52;100737.47;;;2.89;91.14
64886;BME280;51514;52.206;5.114;2022-11-20T14:08:41;100721.09;;;2.82;91.38
64886;BME280;51514;52.206;5.114;2022-11-20T14:11:22;100701.38;;;2.85;91.34
64886;BME280;51514;52.206;5.114;2022-11-20T14:14:03;100693.63;;;2.82;92.06
64886;BME280;51514;52.206;5.114;2022-11-20T14:16:31;100689.28;;;2.81;92.17